createdAt,value
2023-02-22T00:01:07.596Z,45.20
2023-02-22T00:03:35.596Z,45.37
2023-02-22T00:06:06.119Z,45.34
2023-02-22T00:08:37.913Z,45.53
2023-02-22T00:11:08.797Z,45.40
2023-02-22T00:13:38.597Z,45.93
2023-02-22T00:16:07.395Z,45.57
2023-02-22T00:18:35.127Z,45.74
2023-02-22T00:21:02.974Z,45.70
2023-02-22T00:23:32.039Z,45.85
2023-02-22T00:26:01.271Z,46.04
2023-02-22T00:28:30.726Z,45.81
2023-02-22T00:30:59.896Z,46.04
2023-02-22T00:33:28.018Z,45.83
2023-02-22T00:35:55.693Z,45.52
2023-02-22T00:38:24.232Z,45.71
2023-02-22T00:40:53.127Z,45.93
2023-02-22T00:43:21.075Z,45.71
2023-02-22T00:45:49.270Z,45.94
2023-02-22T00:48:18.763Z,45.98
2023-02-22T00:50:48.447Z,45.60
2023-02-22T00:53:17.454Z,45.61
2023-02-22T00:55:45.286Z,45.74
2023-02-22T00:58:13.128Z,45.72
2023-02-22T01:00:43.005Z,45.59
2023-02-22T01:03:14.656Z,45.50
2023-02-22T01:05:43.328Z,46.03
2023-02-22T01:08:13.914Z,45.86
2023-02-22T01:10:41.782Z,46.04
2023-02-22T01:13:12.535Z,46.36
2023-02-22T01:15:44.730Z,45.98
2023-02-22T01:18:13.344Z,46.21
2023-02-22T01:20:41.127Z,46.16
2023-02-22T01:23:10.619Z,46.38
2023-02-22T01:25:38.549Z,46.22
2023-02-22T01:28:08.103Z,46.09
2023-02-22T01:30:37.458Z,46.06
2023-02-22T01:33:07.788Z,46.25
2023-02-22T01:35:40.830Z,45.77
2023-02-22T01:38:10.569Z,46.07
2023-02-22T01:40:46.491Z,46.01
2023-02-22T01:43:27.916Z,45.95
2023-02-22T01:46:06.455Z,46.27
2023-02-22T01:48:54.347Z,46.05
2023-02-22T01:51:37.544Z,46.11
2023-02-22T01:54:15.309Z,46.36
2023-02-22T01:57:15.569Z,46.24
2023-02-22T01:59:48.775Z,46.32
2023-02-22T02:02:18.751Z,46.17
2023-02-22T02:04:46.617Z,46.32
2023-02-22T02:07:18.693Z,46.23
2023-02-22T02:09:59.419Z,46.50
2023-02-22T02:12:32.807Z,46.41
2023-02-22T02:15:33.683Z,46.64
2023-02-22T02:18:09.294Z,46.58
2023-02-22T02:21:41.782Z,46.60
2023-02-22T02:24:29.631Z,46.54
2023-02-22T02:27:20.352Z,46.54
2023-02-22T02:30:12.586Z,46.41
2023-02-22T02:33:01.656Z,46.48
2023-02-22T02:35:44.386Z,46.65
2023-02-22T02:38:23.384Z,46.77
2023-02-22T02:41:19.631Z,46.66
2023-02-22T02:44:11.216Z,46.38
2023-02-22T02:46:49.744Z,46.53
2023-02-22T02:49:25.909Z,46.53
2023-02-22T02:51:56.351Z,46.53
2023-02-22T02:54:25.088Z,46.74
2023-02-22T02:57:13.744Z,46.91
2023-02-22T02:59:41.468Z,46.80
2023-02-22T03:02:27.560Z,46.69
2023-02-22T03:05:31.845Z,47.04
2023-02-22T03:08:30.579Z,47.02
2023-02-22T03:11:16.616Z,47.19
2023-02-22T03:14:17.960Z,47.06
2023-02-22T03:17:41.578Z,47.18
2023-02-22T03:20:31.909Z,47.06
2023-02-22T03:23:11.799Z,47.02
2023-02-22T03:25:51.781Z,47.17
2023-02-22T03:28:26.351Z,47.09
2023-02-22T03:31:15.841Z,47.25
2023-02-22T03:33:56.176Z,47.09
2023-02-22T03:36:51.141Z,47.23
2023-02-22T03:39:20.567Z,47.37
2023-02-22T03:41:51.535Z,47.18
2023-02-22T03:44:27.468Z,47.19
2023-02-22T03:46:57.769Z,46.97
2023-02-22T03:49:53.925Z,47.06
2023-02-22T03:52:23.439Z,47.35
2023-02-22T03:54:55.820Z,47.14
2023-02-22T03:57:32.019Z,47.11
2023-02-22T04:00:09.020Z,47.12
2023-02-22T04:02:42.474Z,47.25
2023-02-22T04:05:15.738Z,47.32
2023-02-22T04:07:43.626Z,47.31
2023-02-22T04:10:17.739Z,47.06
2023-02-22T04:12:45.678Z,47.38
2023-02-22T04:15:18.944Z,47.46
2023-02-22T04:17:47.280Z,47.50
2023-02-22T04:20:19.894Z,47.45
2023-02-22T04:22:56.681Z,47.50
2023-02-22T04:25:25.113Z,47.48
2023-02-22T04:27:53.842Z,47.60
2023-02-22T04:30:31.804Z,47.65
2023-02-22T04:32:59.804Z,47.75
2023-02-22T04:35:27.810Z,47.80
2023-02-22T04:37:55.683Z,47.68
2023-02-22T04:40:23.721Z,47.51
2023-02-22T04:42:51.536Z,47.51
2023-02-22T04:45:19.428Z,47.56
2023-02-22T04:47:47.232Z,47.43
2023-02-22T04:50:16.857Z,47.39
2023-02-22T04:52:45.602Z,47.66
2023-02-22T04:55:13.345Z,47.59
2023-02-22T04:57:41.161Z,47.69
2023-02-22T05:00:10.494Z,47.57
2023-02-22T05:02:40.120Z,47.68
2023-02-22T05:05:08.345Z,47.59
2023-02-22T05:07:36.189Z,47.88
2023-02-22T05:10:04.203Z,48.01
2023-02-22T05:12:32.014Z,48.12
2023-02-22T05:14:59.818Z,48.02
2023-02-22T05:17:27.595Z,48.11
2023-02-22T05:19:55.434Z,47.97
2023-02-22T05:22:24.420Z,47.87
2023-02-22T05:24:56.796Z,48.07
2023-02-22T05:27:24.642Z,48.01
2023-02-22T05:29:52.314Z,48.22
2023-02-22T05:32:20.103Z,48.16
2023-02-22T05:34:48.004Z,48.01
2023-02-22T05:37:15.664Z,48.08
2023-02-22T05:39:43.369Z,48.05
2023-02-22T05:42:11.090Z,48.03
2023-02-22T05:44:38.799Z,47.98
2023-02-22T05:47:06.448Z,47.97
2023-02-22T05:49:34.125Z,48.04
2023-02-22T05:52:01.907Z,48.01
2023-02-22T05:54:29.687Z,48.23
2023-02-22T05:56:57.993Z,47.98
2023-02-22T05:59:26.475Z,47.88
2023-02-22T06:01:54.329Z,48.15
2023-02-22T06:04:22.015Z,48.33
2023-02-22T06:06:49.738Z,48.25
2023-02-22T06:09:17.808Z,48.20
2023-02-22T06:11:45.723Z,48.41
2023-02-22T06:14:13.536Z,48.41
2023-02-22T06:16:41.312Z,48.46
2023-02-22T06:19:09.280Z,48.27
2023-02-22T06:21:37.060Z,48.44
2023-02-22T06:24:05.166Z,48.22
2023-02-22T06:26:32.877Z,48.40
2023-02-22T06:29:02.055Z,48.63
2023-02-22T06:31:31.718Z,48.43
2023-02-22T06:33:59.398Z,48.34
2023-02-22T06:36:27.172Z,48.47
2023-02-22T06:38:57.242Z,48.32
2023-02-22T06:41:24.942Z,48.41
2023-02-22T06:43:52.716Z,48.71
2023-02-22T06:46:21.136Z,48.69
2023-02-22T06:48:52.237Z,48.95
2023-02-22T06:51:20.095Z,48.64
2023-02-22T06:53:49.813Z,48.57
2023-02-22T06:56:17.824Z,48.71
2023-02-22T06:58:46.137Z,48.68
2023-02-22T07:01:14.165Z,48.82
2023-02-22T07:03:42.925Z,48.75
2023-02-22T07:06:10.945Z,48.76
2023-02-22T07:08:40.511Z,48.88
2023-02-22T07:11:08.161Z,48.91
2023-02-22T07:13:35.923Z,49.00
2023-02-22T07:16:03.896Z,49.06
2023-02-22T07:18:31.676Z,49.16
2023-02-22T07:21:01.391Z,49.13
2023-02-22T07:23:29.479Z,49.18
2023-02-22T07:26:01.457Z,49.16
2023-02-22T07:28:31.407Z,49.20
2023-02-22T07:31:01.762Z,49.16
2023-02-22T07:33:29.487Z,49.17
2023-02-22T07:35:59.558Z,49.39
2023-02-22T07:38:28.672Z,49.22
2023-02-22T07:40:58.197Z,49.39
2023-02-22T07:43:29.003Z,49.30
2023-02-22T07:46:03.024Z,49.52
2023-02-22T07:48:32.240Z,49.36
2023-02-22T07:51:00.251Z,49.61
2023-02-22T07:53:32.409Z,49.75
2023-02-22T07:56:05.106Z,49.78
2023-02-22T07:58:33.360Z,49.83
2023-02-22T08:01:04.421Z,49.85
2023-02-22T08:03:36.506Z,49.89
2023-02-22T08:06:07.441Z,50.01
2023-02-22T08:08:35.190Z,50.07
2023-02-22T08:11:03.273Z,49.91
2023-02-22T08:13:31.492Z,49.92
2023-02-22T08:15:59.394Z,49.94
2023-02-22T08:18:27.628Z,50.04
2023-02-22T08:20:55.958Z,49.98
2023-02-22T08:23:27.104Z,49.99
2023-02-22T08:25:57.770Z,50.30
2023-02-22T08:28:27.777Z,49.80
2023-02-22T08:30:55.615Z,50.10
2023-02-22T08:33:26.653Z,49.97
2023-02-22T08:35:54.702Z,50.15
2023-02-22T08:38:30.417Z,50.04
2023-02-22T08:41:00.458Z,49.96
2023-02-22T08:43:28.653Z,50.19
2023-02-22T08:45:57.757Z,50.22
2023-02-22T08:48:26.868Z,49.88
2023-02-22T08:50:54.995Z,50.31
2023-02-22T08:53:23.309Z,50.26
2023-02-22T08:55:51.148Z,50.18
2023-02-22T08:58:19.056Z,50.04
2023-02-22T09:00:47.244Z,50.32
2023-02-22T09:03:37.625Z,50.38
2023-02-22T09:06:08.409Z,50.27
2023-02-22T09:08:36.280Z,50.24
2023-02-22T09:11:05.530Z,50.40
2023-02-22T09:13:34.106Z,50.15
2023-02-22T09:16:01.921Z,50.22
2023-02-22T09:18:43.535Z,50.19
2023-02-22T09:21:12.854Z,49.93
2023-02-22T09:23:41.579Z,49.92
2023-02-22T09:26:10.433Z,49.77
2023-02-22T09:28:38.638Z,50.01
2023-02-22T09:31:07.571Z,49.69
2023-02-22T09:33:35.388Z,49.74
2023-02-22T09:36:03.133Z,49.78
2023-02-22T09:38:32.657Z,49.58
2023-02-22T09:41:12.414Z,49.43
2023-02-22T09:44:30.491Z,49.56
2023-02-22T09:47:00.748Z,49.47
2023-02-22T09:49:39.841Z,49.41
2023-02-22T09:52:28.067Z,49.32
2023-02-22T09:55:08.738Z,49.39
2023-02-22T09:57:42.131Z,49.33
2023-02-22T10:00:28.832Z,49.23
2023-02-22T10:03:18.971Z,49.18
2023-02-22T10:06:10.126Z,49.19
2023-02-22T10:08:39.848Z,49.25
2023-02-22T10:11:43.846Z,48.90
2023-02-22T10:14:20.662Z,48.87
2023-02-22T10:17:33.120Z,48.68
2023-02-22T10:20:28.566Z,48.47
2023-02-22T10:23:26.385Z,48.36
2023-02-22T10:26:13.528Z,48.39
2023-02-22T10:29:01.332Z,48.05
2023-02-22T10:31:38.808Z,48.21
2023-02-22T10:34:25.824Z,47.86
2023-02-22T10:37:32.847Z,47.71
2023-02-22T10:40:17.295Z,47.73
2023-02-22T10:42:47.468Z,47.94
2023-02-22T10:45:27.214Z,47.63
2023-02-22T10:47:58.989Z,47.64
2023-02-22T10:50:31.827Z,47.54
2023-02-22T10:52:59.965Z,47.54
2023-02-22T10:55:28.361Z,47.14
2023-02-22T10:58:07.084Z,47.08
2023-02-22T11:00:40.072Z,47.03
2023-02-22T11:03:19.588Z,46.97
2023-02-22T11:05:50.819Z,47.22
2023-02-22T11:08:21.478Z,46.54
2023-02-22T11:10:56.222Z,46.72
2023-02-22T11:13:29.520Z,46.61
2023-02-22T11:16:20.769Z,46.49
2023-02-22T11:18:49.308Z,46.87
2023-02-22T11:21:23.319Z,46.52
2023-02-22T11:24:10.376Z,46.32
2023-02-22T11:26:55.799Z,46.16
2023-02-22T11:29:36.329Z,46.23
2023-02-22T11:32:15.615Z,46.36
2023-02-22T11:34:45.264Z,46.44
2023-02-22T11:37:36.760Z,46.18
2023-02-22T11:40:19.864Z,45.84
2023-02-22T11:43:05.824Z,46.24
2023-02-22T11:45:34.399Z,46.23
2023-02-22T11:48:07.510Z,46.18
2023-02-22T11:51:19.139Z,45.84
2023-02-22T11:54:25.448Z,45.95
2023-02-22T11:57:01.480Z,46.05
2023-02-22T11:59:41.824Z,45.96
2023-02-22T12:02:51.780Z,45.76
2023-02-22T12:06:03.035Z,45.82
2023-02-22T12:09:03.493Z,45.74
2023-02-22T12:11:45.276Z,45.62
2023-02-22T12:14:45.333Z,45.51
2023-02-22T12:17:54.348Z,45.37
2023-02-22T12:20:45.780Z,45.43
2023-02-22T12:23:47.072Z,45.26
2023-02-22T12:26:26.885Z,45.48
2023-02-22T12:29:14.820Z,45.26
2023-02-22T12:32:07.632Z,44.96
2023-02-22T12:34:57.387Z,44.77
2023-02-22T12:37:56.860Z,44.80
2023-02-22T12:41:08.740Z,44.81
2023-02-22T12:43:41.713Z,44.74
2023-02-22T12:46:29.690Z,44.40
2023-02-22T12:49:39.953Z,44.33
2023-02-22T12:52:21.730Z,44.38
2023-02-22T12:55:07.283Z,44.03
2023-02-22T12:58:17.760Z,43.73
2023-02-22T13:01:30.039Z,43.74
2023-02-22T13:03:58.009Z,43.75
2023-02-22T13:06:51.471Z,43.37
2023-02-22T13:09:50.271Z,43.27
2023-02-22T13:13:04.854Z,42.86
2023-02-22T13:16:05.934Z,42.77
2023-02-22T13:19:30.866Z,42.78
2023-02-22T13:23:03.003Z,42.75
2023-02-22T13:26:03.596Z,42.65
2023-02-22T13:28:43.253Z,42.40
2023-02-22T13:31:55.346Z,42.29
2023-02-22T13:35:13.936Z,41.91
2023-02-22T13:37:41.705Z,42.13
2023-02-22T13:40:44.323Z,41.71
2023-02-22T13:43:27.099Z,41.66
2023-02-22T13:46:19.126Z,41.72
2023-02-22T13:49:06.874Z,41.48
2023-02-22T13:51:47.110Z,41.18
2023-02-22T13:54:51.472Z,41.56
2023-02-22T13:57:25.457Z,41.30
2023-02-22T14:00:14.778Z,40.96
2023-02-22T14:03:08.344Z,40.44
2023-02-22T14:05:50.973Z,40.84
2023-02-22T14:08:19.211Z,40.79
2023-02-22T14:10:52.653Z,40.81
2023-02-22T14:13:29.220Z,40.84
2023-02-22T14:16:00.295Z,40.81
2023-02-22T14:18:35.939Z,40.66
2023-02-22T14:21:16.385Z,40.35
2023-02-22T14:23:51.220Z,40.70
2023-02-22T14:26:33.110Z,40.28
2023-02-22T14:29:09.036Z,40.57
2023-02-22T14:31:51.652Z,40.30
2023-02-22T14:34:48.737Z,40.38
2023-02-22T14:37:40.003Z,40.42
2023-02-22T14:40:29.316Z,40.63
2023-02-22T14:43:22.569Z,40.60
2023-02-22T14:45:54.961Z,40.89
2023-02-22T14:48:42.881Z,40.78
2023-02-22T14:51:25.103Z,41.06
2023-02-22T14:54:25.659Z,40.90
2023-02-22T14:57:21.804Z,41.04
2023-02-22T15:00:31.183Z,41.09
2023-02-22T15:03:01.629Z,41.73
2023-02-22T15:05:38.493Z,41.51
2023-02-22T15:08:09.499Z,41.58
2023-02-22T15:10:43.265Z,41.41
2023-02-22T15:13:31.323Z,41.42
2023-02-22T15:16:02.321Z,41.42
2023-02-22T15:18:40.884Z,41.45
2023-02-22T15:21:23.442Z,41.53
2023-02-22T15:23:53.674Z,41.62
2023-02-22T15:26:31.185Z,41.32
2023-02-22T15:29:02.707Z,41.59
2023-02-22T15:31:31.830Z,41.89
2023-02-22T15:34:24.940Z,41.53
2023-02-22T15:36:56.200Z,41.66
2023-02-22T15:39:38.602Z,41.54
2023-02-22T15:42:20.735Z,41.29
2023-02-22T15:44:53.816Z,41.46
2023-02-22T15:47:28.144Z,41.54
2023-02-22T15:50:23.329Z,41.26
2023-02-22T15:52:59.054Z,41.53
2023-02-22T15:55:42.013Z,41.49
2023-02-22T15:58:18.315Z,41.44
2023-02-22T16:01:03.685Z,41.38
2023-02-22T16:03:50.564Z,41.45
2023-02-22T16:06:35.743Z,41.41
2023-02-22T16:09:25.855Z,41.39
2023-02-22T16:12:21.936Z,41.44
2023-02-22T16:14:52.332Z,41.55
2023-02-22T16:17:49.475Z,41.40
2023-02-22T16:20:24.846Z,41.50
2023-02-22T16:22:58.101Z,41.48
2023-02-22T16:25:37.328Z,41.39
2023-02-22T16:28:36.345Z,41.50
2023-02-22T16:31:05.036Z,41.56
2023-02-22T16:33:34.089Z,41.54
2023-02-22T16:36:07.976Z,41.45
2023-02-22T16:38:38.354Z,41.58
2023-02-22T16:41:07.527Z,41.42
2023-02-22T16:43:35.992Z,41.63
2023-02-22T16:46:06.956Z,41.51
2023-02-22T16:48:38.333Z,41.58
2023-02-22T16:51:17.523Z,41.50
2023-02-22T16:53:45.755Z,41.72
2023-02-22T16:56:16.860Z,41.70
2023-02-22T16:58:46.872Z,41.86
2023-02-22T17:01:18.201Z,41.83
2023-02-22T17:03:46.430Z,41.78
2023-02-22T17:06:14.219Z,41.95
2023-02-22T17:08:42.909Z,41.96
2023-02-22T17:11:12.820Z,41.95
2023-02-22T17:13:40.936Z,42.19
2023-02-22T17:16:14.961Z,42.19
2023-02-22T17:18:47.203Z,42.43
2023-02-22T17:21:16.578Z,42.33
2023-02-22T17:23:47.548Z,42.41
2023-02-22T17:26:17.053Z,42.51
2023-02-22T17:28:45.221Z,42.59
2023-02-22T17:31:24.193Z,42.66
2023-02-22T17:33:52.390Z,42.85
2023-02-22T17:36:20.839Z,42.96
2023-02-22T17:38:49.810Z,42.96
2023-02-22T17:41:17.672Z,43.30
2023-02-22T17:43:45.661Z,43.37
2023-02-22T17:46:15.666Z,43.65
2023-02-22T17:48:50.234Z,43.81
2023-02-22T17:51:18.233Z,43.81
2023-02-22T17:53:46.262Z,44.01
2023-02-22T17:56:18.754Z,44.35
2023-02-22T17:58:54.104Z,44.31
2023-02-22T18:01:30.202Z,44.54
2023-02-22T18:04:02.578Z,44.66
2023-02-22T18:06:32.661Z,44.67
2023-02-22T18:09:01.319Z,45.00
2023-02-22T18:11:32.521Z,45.01
2023-02-22T18:14:00.617Z,45.14
2023-02-22T18:16:28.375Z,45.17
2023-02-22T18:18:56.947Z,45.31
2023-02-22T18:21:26.794Z,45.31
2023-02-22T18:23:55.197Z,45.21
2023-02-22T18:26:25.613Z,45.38
2023-02-22T18:28:56.318Z,45.42
2023-02-22T18:31:24.446Z,45.61
2023-02-22T18:33:53.451Z,46.09
2023-02-22T18:36:22.785Z,45.85
2023-02-22T18:38:55.388Z,46.24
2023-02-22T18:41:27.183Z,45.97
2023-02-22T18:43:57.561Z,46.33
2023-02-22T18:46:25.535Z,46.19
2023-02-22T18:48:56.307Z,46.31
2023-02-22T18:51:26.109Z,46.50
2023-02-22T18:54:00.424Z,46.48
2023-02-22T18:56:31.788Z,46.55
2023-02-22T18:59:04.205Z,46.52
2023-02-22T19:01:40.854Z,46.53
2023-02-22T19:04:10.116Z,46.57
2023-02-22T19:06:38.373Z,46.77
2023-02-22T19:09:09.727Z,46.65
2023-02-22T19:11:37.869Z,46.66
2023-02-22T19:14:05.758Z,46.70
2023-02-22T19:16:33.738Z,46.69
2023-02-22T19:19:01.660Z,46.71
2023-02-22T19:21:33.042Z,47.05
2023-02-22T19:24:04.558Z,46.78
2023-02-22T19:26:32.352Z,46.94
2023-02-22T19:29:08.371Z,46.86
2023-02-22T19:31:36.394Z,46.90
2023-02-22T19:34:11.108Z,46.74
2023-02-22T19:36:41.560Z,46.85
2023-02-22T19:39:12.226Z,46.86
2023-02-22T19:41:40.633Z,46.77
2023-02-22T19:44:09.304Z,46.77
2023-02-22T19:46:37.769Z,46.75
2023-02-22T19:49:07.165Z,46.67
2023-02-22T19:51:35.200Z,46.83
2023-02-22T19:54:07.326Z,46.88
2023-02-22T19:56:35.737Z,47.03
2023-02-22T19:59:12.668Z,46.89
2023-02-22T20:01:44.222Z,46.97
2023-02-22T20:04:18.565Z,47.14
2023-02-22T20:06:49.147Z,47.04
2023-02-22T20:09:24.294Z,47.00
2023-02-22T20:11:52.337Z,47.12
2023-02-22T20:14:23.948Z,46.96
2023-02-22T20:16:54.017Z,47.04
2023-02-22T20:19:22.738Z,47.15
2023-02-22T20:21:52.409Z,47.18
2023-02-22T20:24:20.311Z,47.37
2023-02-22T20:26:49.878Z,47.42
2023-02-22T20:29:19.769Z,47.57
2023-02-22T20:31:53.543Z,47.53
2023-02-22T20:34:22.528Z,47.67
2023-02-22T20:36:53.926Z,47.74
2023-02-22T20:39:22.765Z,47.71
2023-02-22T20:41:50.865Z,47.81
2023-02-22T20:44:19.686Z,47.84
2023-02-22T20:46:48.468Z,47.91
2023-02-22T20:49:19.924Z,47.93
2023-02-22T20:51:49.377Z,48.01
2023-02-22T20:54:18.102Z,48.01
2023-02-22T20:57:08.022Z,47.96
2023-02-22T20:59:55.708Z,48.17
2023-02-22T21:02:23.888Z,48.31
2023-02-22T21:04:52.102Z,48.25
2023-02-22T21:07:22.363Z,48.26
2023-02-22T21:09:50.485Z,48.16
2023-02-22T21:12:18.470Z,48.15
2023-02-22T21:14:46.365Z,48.26
2023-02-22T21:17:14.391Z,48.17
2023-02-22T21:19:42.447Z,48.28
2023-02-22T21:22:10.486Z,48.23
2023-02-22T21:24:38.690Z,48.25
2023-02-22T21:27:06.941Z,48.32
2023-02-22T21:29:35.546Z,48.27
2023-02-22T21:32:03.908Z,48.48
2023-02-22T21:34:32.146Z,48.53
2023-02-22T21:36:59.899Z,48.54
2023-02-22T21:39:30.362Z,48.39
2023-02-22T21:42:00.136Z,48.78
2023-02-22T21:44:30.274Z,48.58
2023-02-22T21:46:58.076Z,48.63
2023-02-22T21:49:26.189Z,48.85
2023-02-22T21:51:53.923Z,48.78
2023-02-22T21:54:21.998Z,48.82
2023-02-22T21:56:50.308Z,48.90
2023-02-22T21:59:23.417Z,48.90
2023-02-22T22:01:57.900Z,49.01
2023-02-22T22:04:29.045Z,49.04
2023-02-22T22:06:59.600Z,49.10
2023-02-22T22:09:32.882Z,49.13
2023-02-22T22:12:06.025Z,49.27
2023-02-22T22:14:35.321Z,49.48
2023-02-22T22:17:06.941Z,49.38
2023-02-22T22:19:40.430Z,49.47
2023-02-22T22:22:08.756Z,49.43
2023-02-22T22:24:37.003Z,49.57
2023-02-22T22:27:07.626Z,49.86
2023-02-22T22:29:35.626Z,49.77
2023-02-22T22:32:04.143Z,49.89
2023-02-22T22:34:34.403Z,49.71
2023-02-22T22:37:02.980Z,49.98
2023-02-22T22:39:30.870Z,50.01
2023-02-22T22:41:58.952Z,49.92
2023-02-22T22:44:32.677Z,49.94
2023-02-22T22:47:00.961Z,49.97
2023-02-22T22:49:31.244Z,50.03
2023-02-22T22:51:59.140Z,50.00
2023-02-22T22:54:28.808Z,49.98
2023-02-22T22:56:56.527Z,50.18
2023-02-22T22:59:24.310Z,50.26
2023-02-22T23:01:52.321Z,50.33
2023-02-22T23:04:21.432Z,50.34
2023-02-22T23:06:51.550Z,50.47
2023-02-22T23:09:29.666Z,50.55
2023-02-22T23:12:15.079Z,50.55
2023-02-22T23:14:44.856Z,50.54
2023-02-22T23:17:26.705Z,50.75
2023-02-22T23:19:54.830Z,50.86
2023-02-22T23:22:22.857Z,50.75
2023-02-22T23:24:50.792Z,50.76
2023-02-22T23:27:19.015Z,50.80
2023-02-22T23:29:47.120Z,50.91
2023-02-22T23:32:15.251Z,50.96
2023-02-22T23:34:43.917Z,51.15
2023-02-22T23:37:14.020Z,51.31
2023-02-22T23:39:42.421Z,51.03
2023-02-22T23:42:10.113Z,51.14
2023-02-22T23:44:39.801Z,51.23
2023-02-22T23:47:07.590Z,51.24
2023-02-22T23:49:38.837Z,51.31
2023-02-22T23:52:08.026Z,51.25
2023-02-22T23:54:40.457Z,51.32
2023-02-22T23:57:08.844Z,51.28
2023-02-22T23:59:40.380Z,51.30
